createdAt,value
2022-11-23T00:45:46.092Z,40.82
2022-11-23T00:48:13.694Z,40.75
2022-11-23T00:50:41.249Z,40.77
2022-11-23T00:53:09.234Z,40.70
2022-11-23T00:55:37.161Z,40.44
2022-11-23T00:58:04.728Z,40.66
2022-11-23T01:47:22.080Z,40.71
2022-11-23T01:49:50.407Z,40.67
2022-11-23T01:52:19.196Z,40.70
2022-11-23T01:54:47.919Z,40.69
2022-11-23T01:57:17.494Z,40.74
2022-11-23T01:59:45.134Z,40.64
2022-11-23T02:46:14.341Z,40.67
2022-11-23T02:48:42.005Z,40.73
2022-11-23T02:51:09.783Z,40.68
2022-11-23T02:53:37.324Z,40.67
2022-11-23T02:56:04.951Z,40.63
2022-11-23T02:58:32.857Z,40.67
2022-11-23T03:47:42.658Z,40.58
2022-11-23T03:50:10.939Z,40.65
2022-11-23T03:52:38.969Z,40.67
2022-11-23T03:55:07.143Z,40.59
2022-11-23T03:57:35.353Z,40.71
2022-11-23T04:45:16.607Z,40.60
2022-11-23T04:47:47.539Z,40.63
2022-11-23T04:50:17.252Z,40.75
2022-11-23T04:52:50.290Z,40.74
2022-11-23T04:55:22.454Z,40.81
2022-11-23T04:57:57.493Z,40.80
2022-11-23T05:30:44.148Z,40.83
2022-11-23T05:33:13.138Z,40.91
2022-11-23T05:35:44.685Z,40.76
2022-11-23T05:38:12.679Z,40.81
2022-11-23T05:40:40.429Z,40.88
2022-11-23T05:43:09.237Z,40.84
2022-11-23T05:45:36.988Z,40.89
2022-11-23T05:48:06.270Z,40.88
2022-11-23T05:50:54.109Z,40.83
2022-11-23T05:53:28.351Z,40.98
2022-11-23T05:56:12.978Z,40.82
2022-11-23T05:58:55.869Z,40.86
2022-11-23T06:01:23.664Z,40.90
2022-11-23T06:03:54.774Z,40.94
2022-11-23T06:06:22.465Z,40.83
2022-11-23T06:08:50.060Z,41.02
2022-11-23T06:11:18.541Z,41.08
2022-11-23T06:13:47.505Z,41.00
2022-11-23T06:16:16.328Z,40.93
2022-11-23T06:18:57.336Z,41.01
2022-11-23T06:21:24.908Z,40.96
2022-11-23T06:23:52.689Z,40.90
2022-11-23T06:26:22.144Z,40.88
2022-11-23T06:28:49.788Z,40.93
2022-11-23T06:31:18.518Z,41.03
2022-11-23T06:33:46.077Z,41.00
2022-11-23T06:36:16.002Z,41.03
2022-11-23T06:38:48.521Z,41.00
2022-11-23T06:41:20.803Z,40.96
2022-11-23T06:43:48.714Z,40.99
2022-11-23T06:46:25.378Z,40.95
2022-11-23T06:48:52.977Z,40.93
2022-11-23T06:51:22.835Z,41.07
2022-11-23T06:53:52.158Z,41.07
2022-11-23T06:56:19.812Z,41.08
2022-11-23T06:58:47.730Z,41.09
2022-11-23T07:01:19.892Z,41.12
2022-11-23T07:04:13.750Z,40.97
2022-11-23T07:06:49.278Z,40.99
2022-11-23T07:09:27.870Z,40.93
2022-11-23T07:12:16.120Z,40.99
2022-11-23T07:14:44.594Z,41.06
2022-11-23T07:17:17.192Z,41.03
2022-11-23T07:19:45.390Z,41.11
2022-11-23T07:22:14.502Z,41.11
2022-11-23T07:24:46.512Z,41.12
2022-11-23T07:27:14.609Z,41.14
2022-11-23T07:29:42.454Z,41.11
2022-11-23T07:32:10.033Z,41.13
2022-11-23T07:34:37.689Z,41.05
2022-11-23T07:37:07.256Z,40.99
2022-11-23T07:39:56.437Z,41.01
2022-11-23T07:42:37.191Z,41.03
2022-11-23T07:45:07.943Z,40.97
2022-11-23T07:47:37.643Z,41.08
2022-11-23T07:50:05.493Z,40.97
2022-11-23T07:52:33.075Z,41.03
2022-11-23T07:55:02.071Z,40.89
2022-11-23T07:57:29.890Z,41.04
2022-11-23T07:59:57.752Z,41.11
2022-11-23T08:02:25.385Z,41.03
2022-11-23T08:04:53.009Z,40.97
2022-11-23T08:07:20.654Z,41.13
2022-11-23T08:09:48.268Z,41.08
2022-11-23T08:12:17.238Z,41.07
2022-11-23T08:14:45.027Z,41.22
2022-11-23T08:17:13.123Z,41.10
2022-11-23T08:19:40.767Z,41.11
2022-11-23T08:22:08.335Z,41.01
2022-11-23T08:24:35.954Z,41.05
2022-11-23T08:27:03.530Z,41.03
2022-11-23T08:29:32.448Z,41.16
2022-11-23T08:32:00.133Z,41.01
2022-11-23T08:34:28.201Z,41.05
2022-11-23T08:36:55.769Z,41.10
2022-11-23T08:39:23.383Z,41.05
2022-11-23T08:41:51.027Z,41.02
2022-11-23T08:44:18.623Z,41.08
2022-11-23T08:46:47.582Z,41.13
2022-11-23T08:49:15.320Z,41.10
2022-11-23T08:51:48.559Z,41.10
2022-11-23T08:54:17.525Z,41.10
2022-11-23T08:56:45.320Z,41.09
2022-11-23T08:59:13.325Z,41.17
2022-11-23T09:01:40.937Z,41.09
2022-11-23T09:04:09.892Z,41.11
2022-11-23T09:06:37.529Z,41.12
2022-11-23T09:09:05.111Z,41.06
2022-11-23T09:11:32.696Z,41.02
2022-11-23T09:14:00.541Z,41.12
2022-11-23T09:16:33.579Z,41.12
2022-11-23T09:19:01.616Z,41.12
2022-11-23T09:21:33.386Z,41.19
2022-11-23T09:24:00.953Z,41.19
2022-11-23T09:26:28.684Z,41.13
2022-11-23T09:28:56.247Z,41.15
2022-11-23T09:31:26.772Z,41.06
2022-11-23T09:33:54.437Z,40.93
2022-11-23T09:36:22.846Z,41.07
2022-11-23T09:38:56.563Z,41.05
2022-11-23T09:41:29.907Z,40.91
2022-11-23T09:43:58.817Z,41.06
2022-11-23T09:46:32.893Z,41.06
2022-11-23T09:49:08.891Z,41.08
2022-11-23T09:51:36.910Z,41.11
2022-11-23T09:54:06.490Z,40.95
2022-11-23T09:56:34.917Z,41.10
2022-11-23T09:59:17.369Z,41.07
2022-11-23T10:01:45.223Z,41.17
2022-11-23T10:04:13.284Z,41.27
2022-11-23T10:06:41.351Z,41.24
2022-11-23T10:09:18.022Z,41.14
2022-11-23T10:11:51.404Z,41.20
2022-11-23T10:14:26.027Z,41.26
2022-11-23T10:16:54.811Z,41.23
2022-11-23T10:19:24.911Z,41.17
2022-11-23T10:22:08.573Z,41.30
2022-11-23T10:24:38.740Z,41.16
2022-11-23T10:27:07.205Z,41.34
2022-11-23T10:29:36.136Z,41.31
2022-11-23T10:32:03.724Z,41.33
2022-11-23T10:34:43.349Z,41.38
2022-11-23T10:37:11.336Z,41.30
2022-11-23T10:39:40.223Z,41.39
2022-11-23T10:42:10.867Z,41.30
2022-11-23T10:44:38.691Z,41.47
2022-11-23T10:47:06.299Z,41.53
2022-11-23T10:49:34.120Z,41.59
2022-11-23T10:52:03.589Z,41.43
2022-11-23T10:54:32.452Z,41.64
2022-11-23T10:57:01.839Z,41.58
2022-11-23T10:59:36.607Z,41.47
2022-11-23T11:02:19.033Z,41.52
2022-11-23T11:04:46.915Z,41.61
2022-11-23T11:07:22.301Z,41.53
2022-11-23T11:09:50.498Z,41.50
2022-11-23T11:12:19.490Z,41.51
2022-11-23T11:14:59.356Z,41.44
2022-11-23T11:17:34.139Z,41.57
2022-11-23T11:20:02.052Z,41.56
2022-11-23T11:22:31.101Z,41.62
2022-11-23T11:24:58.735Z,41.63
2022-11-23T11:27:27.914Z,41.51
2022-11-23T11:29:56.101Z,41.57
2022-11-23T11:32:24.423Z,41.48
2022-11-23T11:34:53.059Z,41.72
2022-11-23T11:37:27.161Z,41.65
2022-11-23T11:39:55.092Z,41.53
2022-11-23T11:42:24.067Z,41.64
2022-11-23T11:44:53.219Z,41.57
2022-11-23T11:47:26.087Z,41.67
2022-11-23T11:49:53.704Z,41.68
2022-11-23T11:52:22.276Z,41.73
2022-11-23T11:54:51.944Z,41.65
2022-11-23T11:57:20.856Z,41.69
2022-11-23T11:59:48.832Z,41.82
2022-11-23T12:02:22.125Z,41.90
2022-11-23T12:04:51.146Z,41.67
2022-11-23T12:07:19.436Z,41.77
2022-11-23T12:09:47.859Z,41.61
2022-11-23T12:12:17.084Z,41.98
2022-11-23T12:14:45.124Z,41.81
2022-11-23T12:17:32.354Z,41.87
2022-11-23T12:20:08.491Z,41.71
2022-11-23T12:22:37.544Z,41.80
2022-11-23T12:25:11.652Z,41.85
2022-11-23T12:27:46.614Z,41.76
2022-11-23T12:30:21.410Z,41.85
2022-11-23T12:32:54.375Z,41.96
2022-11-23T12:35:26.346Z,41.70
2022-11-23T12:37:57.159Z,41.99
2022-11-23T12:40:30.764Z,41.70
2022-11-23T12:42:59.534Z,41.96
2022-11-23T12:45:30.471Z,41.93
2022-11-23T12:48:00.890Z,41.97
2022-11-23T12:50:31.341Z,42.06
2022-11-23T12:53:04.175Z,41.97
2022-11-23T12:55:34.109Z,41.94
2022-11-23T12:58:02.453Z,41.92
2022-11-23T13:00:32.053Z,42.02
2022-11-23T13:03:17.539Z,42.22
2022-11-23T13:06:03.335Z,42.11
2022-11-23T13:08:45.968Z,42.06
2022-11-23T13:11:17.222Z,42.15
2022-11-23T13:13:49.056Z,42.16
2022-11-23T13:16:25.511Z,42.25
2022-11-23T13:19:10.334Z,42.21
2022-11-23T13:21:39.824Z,42.17
2022-11-23T13:24:22.270Z,42.06
2022-11-23T13:26:50.007Z,42.10
2022-11-23T13:29:32.495Z,42.35
2022-11-23T13:32:15.009Z,42.07
2022-11-23T13:34:46.334Z,42.28
2022-11-23T13:37:15.322Z,42.35
2022-11-23T13:39:58.709Z,42.18
2022-11-23T13:42:27.621Z,42.28
2022-11-23T13:45:13.929Z,42.40
2022-11-23T13:47:43.796Z,42.33
2022-11-23T13:50:18.885Z,42.25
2022-11-23T13:52:50.775Z,42.25
2022-11-23T13:55:22.016Z,42.22
2022-11-23T13:58:04.492Z,42.22
2022-11-23T14:00:48.190Z,42.24
2022-11-23T14:03:34.666Z,42.32
2022-11-23T14:06:04.312Z,42.30
2022-11-23T14:08:33.304Z,42.32
2022-11-23T14:11:01.164Z,42.15
2022-11-23T14:13:30.108Z,42.27
2022-11-23T14:15:58.868Z,42.23
2022-11-23T14:18:36.194Z,42.28
2022-11-23T14:21:12.762Z,42.20
2022-11-23T14:23:58.062Z,42.38
2022-11-23T14:26:30.945Z,42.31
2022-11-23T14:29:04.832Z,42.30
2022-11-23T14:31:36.164Z,42.43
2022-11-23T14:34:06.148Z,42.52
2022-11-23T14:36:36.624Z,42.54
2022-11-23T14:39:19.252Z,42.46
2022-11-23T14:41:48.283Z,42.41
2022-11-23T14:44:15.924Z,42.31
2022-11-23T14:46:58.345Z,42.39
2022-11-23T14:49:25.948Z,42.33
2022-11-23T14:51:53.516Z,42.52
2022-11-23T14:54:21.336Z,42.47
2022-11-23T14:56:50.441Z,42.54
2022-11-23T14:59:19.509Z,42.56
2022-11-23T15:01:48.304Z,42.30
2022-11-23T15:04:22.420Z,42.44
2022-11-23T15:06:50.612Z,42.53
2022-11-23T15:09:20.720Z,42.51
2022-11-23T15:11:49.250Z,42.39
2022-11-23T15:14:21.804Z,42.45
2022-11-23T15:16:49.729Z,42.47
2022-11-23T15:19:21.147Z,42.55
2022-11-23T15:21:49.381Z,42.44
2022-11-23T15:24:23.497Z,42.60
2022-11-23T15:26:51.126Z,42.53
2022-11-23T15:29:34.186Z,42.51
2022-11-23T15:34:50.061Z,42.50
2022-11-23T15:37:18.186Z,42.50
2022-11-23T15:39:46.109Z,42.65
2022-11-23T15:42:15.186Z,42.62
2022-11-23T15:44:48.987Z,42.57
2022-11-23T15:47:20.767Z,42.55
2022-11-23T15:49:48.493Z,42.54
2022-11-23T15:52:16.607Z,42.62
2022-11-23T15:54:44.175Z,42.67
2022-11-23T15:57:15.067Z,42.54
2022-11-23T15:59:45.178Z,42.68
2022-11-23T16:02:15.254Z,42.56
2022-11-23T16:04:44.068Z,42.48
2022-11-23T16:07:16.501Z,42.55
2022-11-23T16:09:53.091Z,42.56
2022-11-23T16:12:22.179Z,42.54
2022-11-23T16:14:51.084Z,42.60
2022-11-23T16:17:19.406Z,42.68
2022-11-23T16:19:47.732Z,42.70
2022-11-23T16:22:19.374Z,42.66
2022-11-23T16:24:48.311Z,42.60
2022-11-23T16:27:16.066Z,42.57
2022-11-23T16:29:43.771Z,42.88
2022-11-23T16:32:21.743Z,42.72
2022-11-23T16:34:49.461Z,42.68
2022-11-23T16:37:17.140Z,42.68
2022-11-23T16:39:44.719Z,42.61
2022-11-23T16:42:13.903Z,42.61
2022-11-23T16:44:42.154Z,42.67
2022-11-23T16:47:24.559Z,42.70
2022-11-23T16:49:52.316Z,42.75
2022-11-23T16:52:19.988Z,42.71
2022-11-23T16:54:47.786Z,42.72
2022-11-23T16:57:19.699Z,42.61
2022-11-23T16:59:47.291Z,42.65
2022-11-23T17:02:15.044Z,42.68
2022-11-23T17:04:44.421Z,42.77
2022-11-23T17:07:12.044Z,42.79
2022-11-23T17:09:39.627Z,42.74
2022-11-23T17:12:08.065Z,42.75
2022-11-23T17:14:36.664Z,42.83
2022-11-23T17:17:04.444Z,42.79
2022-11-23T17:19:32.568Z,42.71
2022-11-23T17:22:01.868Z,42.74
2022-11-23T17:24:29.481Z,42.72
2022-11-23T17:26:57.467Z,42.75
2022-11-23T17:29:25.058Z,42.65
2022-11-23T17:31:52.705Z,42.75
2022-11-23T17:34:20.866Z,42.86
2022-11-23T17:36:48.487Z,42.73
2022-11-23T17:39:18.598Z,42.65
2022-11-23T17:41:48.142Z,42.69
2022-11-23T17:44:16.166Z,42.77
2022-11-23T17:46:43.852Z,42.75
2022-11-23T17:49:11.645Z,42.75
2022-11-23T17:51:39.233Z,42.76
2022-11-23T17:54:06.831Z,42.56
2022-11-23T17:56:35.951Z,42.75
2022-11-23T17:59:03.809Z,42.66
2022-11-23T18:01:31.757Z,42.71
2022-11-23T18:04:01.136Z,42.77
2022-11-23T18:06:28.925Z,42.77
2022-11-23T18:08:56.488Z,42.70
2022-11-23T18:11:24.143Z,42.72
2022-11-23T18:13:53.447Z,42.69
2022-11-23T18:16:21.113Z,42.90
2022-11-23T18:18:48.760Z,42.71
2022-11-23T18:21:16.460Z,42.73
2022-11-23T18:23:44.131Z,42.81
2022-11-23T18:26:15.191Z,42.72
2022-11-23T18:28:42.801Z,42.84
2022-11-23T18:31:11.809Z,42.74
2022-11-23T18:33:39.442Z,42.80
2022-11-23T18:36:07.366Z,42.67
2022-11-23T18:38:35.966Z,42.78
2022-11-23T18:41:04.384Z,42.76
2022-11-23T18:43:32.830Z,42.80
2022-11-23T18:46:00.557Z,42.66
2022-11-23T18:48:29.849Z,42.71
2022-11-23T18:50:57.690Z,42.63
2022-11-23T18:53:25.424Z,42.66
2022-11-23T18:55:56.250Z,42.79
2022-11-23T18:58:27.865Z,42.82
2022-11-23T19:00:55.666Z,42.74
2022-11-23T19:03:23.324Z,42.82
2022-11-23T19:05:52.431Z,42.77
2022-11-23T19:08:20.347Z,42.83
2022-11-23T19:10:48.233Z,42.82
2022-11-23T19:13:15.889Z,42.77
2022-11-23T19:15:43.545Z,42.80
2022-11-23T19:18:11.245Z,42.71
2022-11-23T19:20:40.065Z,42.65
2022-11-23T19:23:09.027Z,42.91
2022-11-23T19:25:36.611Z,42.85
2022-11-23T19:28:04.509Z,42.75
2022-11-23T19:30:32.125Z,42.68
2022-11-23T19:32:59.766Z,42.83
2022-11-23T19:35:27.475Z,42.69
2022-11-23T19:37:55.120Z,42.93
2022-11-23T19:40:24.857Z,42.81
2022-11-23T19:42:52.764Z,42.74
2022-11-23T19:45:20.614Z,42.71
2022-11-23T19:47:48.611Z,42.84
2022-11-23T19:50:16.596Z,42.74
2022-11-23T19:53:10.663Z,42.68
2022-11-23T19:55:34.958Z,42.75
2022-11-23T19:58:02.559Z,42.70
2022-11-23T20:00:30.284Z,42.63
2022-11-23T20:02:59.460Z,42.69
2022-11-23T20:05:27.284Z,42.67
2022-11-23T20:07:55.015Z,42.61
2022-11-23T20:10:22.971Z,42.75
2022-11-23T20:12:52.017Z,42.70
2022-11-23T20:15:19.871Z,42.68
2022-11-23T20:17:48.893Z,42.68
2022-11-23T20:20:17.278Z,42.69
2022-11-23T20:22:45.031Z,42.65
2022-11-23T20:25:13.223Z,42.72
2022-11-23T20:27:41.920Z,42.67
2022-11-23T20:30:11.540Z,42.73
2022-11-23T20:32:39.119Z,42.69
2022-11-23T20:35:07.235Z,42.66
2022-11-23T20:37:35.191Z,42.77
2022-11-23T20:40:02.870Z,42.72
2022-11-23T20:42:30.518Z,42.72
2022-11-23T20:44:58.154Z,42.58
2022-11-23T20:47:27.981Z,42.65
2022-11-23T20:49:55.688Z,42.67
2022-11-23T20:52:23.526Z,42.68
2022-11-23T20:54:51.819Z,42.57
2022-11-23T20:57:21.476Z,42.70
2022-11-23T20:59:49.061Z,42.61
2022-11-23T21:02:16.830Z,42.56
2022-11-23T21:04:46.001Z,42.69
2022-11-23T21:07:14.245Z,42.58
2022-11-23T21:09:41.896Z,42.66
2022-11-23T21:12:27.133Z,42.60
2022-11-23T21:14:54.762Z,42.64
2022-11-23T21:17:22.694Z,42.61
2022-11-23T21:19:51.724Z,42.72
2022-11-23T21:22:19.682Z,42.74
2022-11-23T21:24:47.637Z,42.64
2022-11-23T21:27:16.635Z,42.63
2022-11-23T21:29:45.429Z,42.63
2022-11-23T21:32:14.637Z,42.59
2022-11-23T21:34:42.247Z,42.64
2022-11-23T21:37:11.413Z,42.59
2022-11-23T21:39:39.120Z,42.58
2022-11-23T21:42:06.939Z,42.62
2022-11-23T21:44:34.762Z,42.58
2022-11-23T21:47:02.970Z,42.55
2022-11-23T21:49:30.630Z,42.65
2022-11-23T21:51:58.240Z,42.63
2022-11-23T21:54:27.193Z,42.50
2022-11-23T21:56:55.041Z,42.59
2022-11-23T21:59:23.294Z,42.46
2022-11-23T22:01:51.032Z,42.63
2022-11-23T22:04:19.171Z,42.56
2022-11-23T22:06:47.171Z,42.64
2022-11-23T22:09:14.985Z,42.44
2022-11-23T22:11:44.190Z,42.44
2022-11-23T22:14:12.814Z,42.56
2022-11-23T22:16:41.133Z,42.48
2022-11-23T22:19:10.726Z,42.48
2022-11-23T22:21:38.573Z,42.59
2022-11-23T22:24:06.580Z,42.49
2022-11-23T22:26:34.608Z,42.57
2022-11-23T22:29:06.107Z,42.53
2022-11-23T22:31:34.181Z,42.63
2022-11-23T22:34:02.809Z,42.59
2022-11-23T22:36:30.836Z,42.63
2022-11-23T22:39:01.671Z,42.50
2022-11-23T22:41:30.153Z,42.58
2022-11-23T22:43:58.029Z,42.56
2022-11-23T22:46:27.198Z,42.52
2022-11-23T22:48:59.319Z,42.50
2022-11-23T22:51:27.818Z,42.58
2022-11-23T22:53:55.584Z,42.47
2022-11-23T22:56:23.627Z,42.48
2022-11-23T22:58:51.453Z,42.25
2022-11-23T23:01:20.166Z,42.48
2022-11-23T23:03:49.577Z,42.37
2022-11-23T23:06:18.033Z,42.39
2022-11-23T23:08:45.796Z,42.42
2022-11-23T23:11:13.670Z,42.41
2022-11-23T23:13:41.622Z,42.42
2022-11-23T23:45:36.839Z,42.38
2022-11-23T23:48:06.468Z,42.30
2022-11-23T23:50:34.340Z,42.42
2022-11-23T23:53:02.105Z,42.42
2022-11-23T23:55:29.823Z,42.35
2022-11-23T23:57:57.517Z,42.33
